Aeroporto :
LOGIN :

Iscrizione | Disclaimer

   EN    FR    IT 

 










Sommario :    VFR   VFR Marginale   IFR   IFR Intensivo   IFR Molto Intensivo
Visibilità : 
Base nubi : 
>= 8 km
>= 3000ft
5 / 8 km
1000 / 3000 ft
1500m / 5 km
500 / 1000 ft
800 / 1500m
200 / 500 ft
< 800m
< 200 ft
Simboli :   Temporali  Nebbia  Neve Forte  Precipitazioni Forti  Vento > 20 kt
SIGMETs :   Varie  Temporali  Ghiacco  Turbolenza  Onda orograficha  Ceneri Vulcaniche






- Altitudine del aeroporto : 1188 ft


LKLN - Plzen Line

ULTIMO METAR :
  • 290700Z AUTO 21007KT 9999 -RA BKN030 OVC051 10/09 Q1015

METARs OBSOLETI :
  • 290630Z AUTO 22007KT 190V250 9999 SCT028 BKN049 OVC110 09/09 Q1014
  • 290600Z AUTO 20007KT 9999 -RA BKN033 BKN048 OVC100 09/09 Q1014
  • 290530Z AUTO 21009KT 9999 -RA OVC041 09/09 Q1014
  • 290500Z AUTO 21008KT 9999 -RA SCT057 OVC068 09/09 Q1014
  • 290430Z AUTO 21010KT 9999 -RA OVC043 10/09 Q1014

TAF N/A



MetMap, La meteo Aeronautica in un colpo d'occhio ! - Copyright ORBIFLY Dicembre 2007 - Disclaimer

ORBIFLY MET'MAP TEAM :

Programmazione e sviluppo : Alexandra Zaïnal
Concezione : Baudouin d'Aumeries
Aiuto per la programmazione : Marc-Olivier Méhu
Supporto tecnico e logistico : Manuel Goepfert
Aiuto per la traduzione : Arnaldo La Scala

Contatto : metmap@orbifly.com




FONTI E CREDITI :

   NOAA